sensor_id;sensor_type;location;lat;lon;timestamp;temperature;humidity
25512;DHT22;13414;44.534;18.700;2022-08-19T00:01:33;20.80;99.90
25512;DHT22;13414;44.534;18.700;2022-08-19T00:04:04;20.80;99.90
25512;DHT22;13414;44.534;18.700;2022-08-19T00:06:31;20.80;99.90
25512;DHT22;13414;44.534;18.700;2022-08-19T00:08:58;20.90;99.90
25512;DHT22;13414;44.534;18.700;2022-08-19T00:11:28;20.90;99.90
25512;DHT22;13414;44.534;18.700;2022-08-19T00:13:56;20.90;99.90
25512;DHT22;13414;44.534;18.700;2022-08-19T00:16:24;20.90;99.90
25512;DHT22;13414;44.534;18.700;2022-08-19T00:18:51;20.90;99.90
25512;DHT22;13414;44.534;18.700;2022-08-19T00:21:19;20.80;99.90
25512;DHT22;13414;44.534;18.700;2022-08-19T00:23:46;20.70;99.90
25512;DHT22;13414;44.534;18.700;2022-08-19T00:26:13;20.70;99.90
25512;DHT22;13414;44.534;18.700;2022-08-19T00:28:42;20.70;99.90
25512;DHT22;13414;44.534;18.700;2022-08-19T00:31:10;20.70;99.90
25512;DHT22;13414;44.534;18.700;2022-08-19T00:33:37;20.70;99.90
25512;DHT22;13414;44.534;18.700;2022-08-19T00:36:06;20.70;99.90
25512;DHT22;13414;44.534;18.700;2022-08-19T00:38:35;20.60;99.90
25512;DHT22;13414;44.534;18.700;2022-08-19T00:41:03;20.60;99.90
25512;DHT22;13414;44.534;18.700;2022-08-19T00:43:31;20.60;99.90
25512;DHT22;13414;44.534;18.700;2022-08-19T00:45:59;20.60;99.90
25512;DHT22;13414;44.534;18.700;2022-08-19T00:48:27;20.60;99.90
25512;DHT22;13414;44.534;18.700;2022-08-19T00:50:54;20.60;99.90
25512;DHT22;13414;44.534;18.700;2022-08-19T00:53:24;20.50;99.90
25512;DHT22;13414;44.534;18.700;2022-08-19T00:55:56;20.50;99.90
25512;DHT22;13414;44.534;18.700;2022-08-19T00:58:29;20.40;99.90
25512;DHT22;13414;44.534;18.700;2022-08-19T01:00:59;20.40;99.90
25512;DHT22;13414;44.534;18.700;2022-08-19T01:03:26;20.40;99.90
25512;DHT22;13414;44.534;18.700;2022-08-19T01:05:54;20.40;99.90
25512;DHT22;13414;44.534;18.700;2022-08-19T01:08:22;20.30;99.90
25512;DHT22;13414;44.534;18.700;2022-08-19T01:10:52;20.30;99.90
25512;DHT22;13414;44.534;18.700;2022-08-19T01:13:22;20.30;99.90
25512;DHT22;13414;44.534;18.700;2022-08-19T01:15:53;20.20;99.90
25512;DHT22;13414;44.534;18.700;2022-08-19T01:18:24;20.20;99.90
25512;DHT22;13414;44.534;18.700;2022-08-19T01:20:52;20.10;99.90
25512;DHT22;13414;44.534;18.700;2022-08-19T01:23:22;20.10;99.90
25512;DHT22;13414;44.534;18.700;2022-08-19T01:26:10;20.10;99.90
25512;DHT22;13414;44.534;18.700;2022-08-19T01:28:38;20.10;99.90
25512;DHT22;13414;44.534;18.700;2022-08-19T01:31:09;20.10;99.90
25512;DHT22;13414;44.534;18.700;2022-08-19T01:33:37;20.10;99.90
25512;DHT22;13414;44.534;18.700;2022-08-19T01:36:07;20.00;99.90
25512;DHT22;13414;44.534;18.700;2022-08-19T01:38:38;20.00;99.90
25512;DHT22;13414;44.534;18.700;2022-08-19T01:41:07;20.00;99.90
25512;DHT22;13414;44.534;18.700;2022-08-19T01:43:34;20.00;99.90
25512;DHT22;13414;44.534;18.700;2022-08-19T01:46:02;19.90;99.90
25512;DHT22;13414;44.534;18.700;2022-08-19T01:48:34;19.90;99.90
25512;DHT22;13414;44.534;18.700;2022-08-19T01:51:01;19.90;99.90
25512;DHT22;13414;44.534;18.700;2022-08-19T01:53:29;19.80;99.90
25512;DHT22;13414;44.534;18.700;2022-08-19T01:55:58;19.80;99.90
25512;DHT22;13414;44.534;18.700;2022-08-19T01:58:27;19.80;99.90
25512;DHT22;13414;44.534;18.700;2022-08-19T02:00:57;19.70;99.90
25512;DHT22;13414;44.534;18.700;2022-08-19T02:03:24;19.80;99.90
25512;DHT22;13414;44.534;18.700;2022-08-19T02:05:55;19.80;99.90
25512;DHT22;13414;44.534;18.700;2022-08-19T02:08:23;19.80;99.90
25512;DHT22;13414;44.534;18.700;2022-08-19T02:10:50;19.80;99.90
25512;DHT22;13414;44.534;18.700;2022-08-19T02:13:19;19.80;99.90
25512;DHT22;13414;44.534;18.700;2022-08-19T02:15:47;19.80;99.90
25512;DHT22;13414;44.534;18.700;2022-08-19T02:18:14;19.70;99.90
25512;DHT22;13414;44.534;18.700;2022-08-19T02:20:42;19.70;99.90
25512;DHT22;13414;44.534;18.700;2022-08-19T02:23:11;19.60;99.90
25512;DHT22;13414;44.534;18.700;2022-08-19T02:25:39;19.60;99.90
25512;DHT22;13414;44.534;18.700;2022-08-19T02:28:06;19.60;99.90
25512;DHT22;13414;44.534;18.700;2022-08-19T02:30:35;19.50;99.90
25512;DHT22;13414;44.534;18.700;2022-08-19T02:33:02;19.50;99.90
25512;DHT22;13414;44.534;18.700;2022-08-19T02:35:30;19.50;99.90
25512;DHT22;13414;44.534;18.700;2022-08-19T02:37:57;19.50;99.90
25512;DHT22;13414;44.534;18.700;2022-08-19T02:40:48;19.60;99.90
25512;DHT22;13414;44.534;18.700;2022-08-19T02:43:18;19.50;99.90
25512;DHT22;13414;44.534;18.700;2022-08-19T02:45:49;19.50;99.90
25512;DHT22;13414;44.534;18.700;2022-08-19T02:48:18;19.50;99.90
25512;DHT22;13414;44.534;18.700;2022-08-19T02:50:47;19.40;99.90
25512;DHT22;13414;44.534;18.700;2022-08-19T02:53:16;19.40;99.90
25512;DHT22;13414;44.534;18.700;2022-08-19T02:55:44;19.40;99.90
25512;DHT22;13414;44.534;18.700;2022-08-19T02:58:12;19.40;99.90
25512;DHT22;13414;44.534;18.700;2022-08-19T03:00:44;19.40;99.90
25512;DHT22;13414;44.534;18.700;2022-08-19T03:03:13;19.30;99.90
25512;DHT22;13414;44.534;18.700;2022-08-19T03:05:41;19.30;99.90
25512;DHT22;13414;44.534;18.700;2022-08-19T03:08:09;19.30;99.90
25512;DHT22;13414;44.534;18.700;2022-08-19T03:10:42;19.30;99.90
25512;DHT22;13414;44.534;18.700;2022-08-19T03:13:12;19.30;99.90
25512;DHT22;13414;44.534;18.700;2022-08-19T03:15:41;19.30;99.90
25512;DHT22;13414;44.534;18.700;2022-08-19T03:18:08;19.30;99.90
25512;DHT22;13414;44.534;18.700;2022-08-19T03:20:42;19.30;99.90
25512;DHT22;13414;44.534;18.700;2022-08-19T03:23:09;19.30;99.90
25512;DHT22;13414;44.534;18.700;2022-08-19T03:25:39;19.20;99.90
25512;DHT22;13414;44.534;18.700;2022-08-19T03:28:09;19.20;99.90
25512;DHT22;13414;44.534;18.700;2022-08-19T03:30:38;19.10;99.90
25512;DHT22;13414;44.534;18.700;2022-08-19T03:33:07;19.10;99.90
25512;DHT22;13414;44.534;18.700;2022-08-19T03:35:35;19.10;99.90
25512;DHT22;13414;44.534;18.700;2022-08-19T03:38:05;19.10;99.90
25512;DHT22;13414;44.534;18.700;2022-08-19T03:40:35;19.10;99.90
25512;DHT22;13414;44.534;18.700;2022-08-19T03:43:03;19.00;99.90
25512;DHT22;13414;44.534;18.700;2022-08-19T03:45:31;19.00;99.90
25512;DHT22;13414;44.534;18.700;2022-08-19T03:47:58;19.00;99.90
25512;DHT22;13414;44.534;18.700;2022-08-19T03:50:26;19.00;99.90
25512;DHT22;13414;44.534;18.700;2022-08-19T03:52:53;19.00;99.90
25512;DHT22;13414;44.534;18.700;2022-08-19T03:55:22;19.00;99.90
25512;DHT22;13414;44.534;18.700;2022-08-19T03:57:49;19.00;99.90
25512;DHT22;13414;44.534;18.700;2022-08-19T04:00:17;18.90;99.90
25512;DHT22;13414;44.534;18.700;2022-08-19T04:02:44;18.90;99.90
25512;DHT22;13414;44.534;18.700;2022-08-19T04:05:12;18.90;99.90
25512;DHT22;13414;44.534;18.700;2022-08-19T04:07:40;19.00;99.90
25512;DHT22;13414;44.534;18.700;2022-08-19T04:10:08;19.00;99.90
25512;DHT22;13414;44.534;18.700;2022-08-19T04:12:37;19.00;99.90
25512;DHT22;13414;44.534;18.700;2022-08-19T04:15:06;19.00;99.90
25512;DHT22;13414;44.534;18.700;2022-08-19T04:17:34;19.10;99.90
25512;DHT22;13414;44.534;18.700;2022-08-19T04:20:01;19.10;99.90
25512;DHT22;13414;44.534;18.700;2022-08-19T04:22:28;19.20;99.90
25512;DHT22;13414;44.534;18.700;2022-08-19T04:24:56;19.30;99.90
25512;DHT22;13414;44.534;18.700;2022-08-19T04:27:23;19.40;99.90
25512;DHT22;13414;44.534;18.700;2022-08-19T04:29:52;19.50;99.90
25512;DHT22;13414;44.534;18.700;2022-08-19T04:32:21;19.60;99.90
25512;DHT22;13414;44.534;18.700;2022-08-19T04:34:48;19.70;99.90
25512;DHT22;13414;44.534;18.700;2022-08-19T04:37:15;19.70;99.90
25512;DHT22;13414;44.534;18.700;2022-08-19T04:39:43;19.80;99.90
25512;DHT22;13414;44.534;18.700;2022-08-19T04:42:27;19.80;99.90
25512;DHT22;13414;44.534;18.700;2022-08-19T04:45:12;19.90;99.90
25512;DHT22;13414;44.534;18.700;2022-08-19T04:47:41;20.00;99.90
25512;DHT22;13414;44.534;18.700;2022-08-19T04:50:09;20.10;99.90
25512;DHT22;13414;44.534;18.700;2022-08-19T04:52:38;20.30;99.90
25512;DHT22;13414;44.534;18.700;2022-08-19T04:55:09;20.50;99.90
25512;DHT22;13414;44.534;18.700;2022-08-19T04:57:37;20.70;99.90
25512;DHT22;13414;44.534;18.700;2022-08-19T05:00:09;20.90;99.90
25512;DHT22;13414;44.534;18.700;2022-08-19T05:02:37;21.20;99.90
25512;DHT22;13414;44.534;18.700;2022-08-19T05:05:05;21.30;99.90
25512;DHT22;13414;44.534;18.700;2022-08-19T05:07:33;21.40;99.90
25512;DHT22;13414;44.534;18.700;2022-08-19T05:10:00;21.60;99.90
25512;DHT22;13414;44.534;18.700;2022-08-19T05:12:27;21.70;99.90
25512;DHT22;13414;44.534;18.700;2022-08-19T05:14:56;22.00;99.90
25512;DHT22;13414;44.534;18.700;2022-08-19T05:17:26;22.10;99.90
25512;DHT22;13414;44.534;18.700;2022-08-19T05:19:54;22.30;99.90
25512;DHT22;13414;44.534;18.700;2022-08-19T05:22:39;22.50;99.90
25512;DHT22;13414;44.534;18.700;2022-08-19T05:25:09;22.60;99.90
25512;DHT22;13414;44.534;18.700;2022-08-19T05:27:38;22.90;99.90
25512;DHT22;13414;44.534;18.700;2022-08-19T05:30:06;23.20;1.00
25512;DHT22;13414;44.534;18.700;2022-08-19T05:32:35;23.40;1.00
25512;DHT22;13414;44.534;18.700;2022-08-19T05:35:03;23.60;92.80
25512;DHT22;13414;44.534;18.700;2022-08-19T05:37:31;23.80;1.00
25512;DHT22;13414;44.534;18.700;2022-08-19T05:39:58;24.10;99.90
25512;DHT22;13414;44.534;18.700;2022-08-19T05:42:25;24.40;99.90
25512;DHT22;13414;44.534;18.700;2022-08-19T05:44:53;24.70;1.00
25512;DHT22;13414;44.534;18.700;2022-08-19T05:47:21;24.30;1.00
25512;DHT22;13414;44.534;18.700;2022-08-19T05:49:50;24.10;99.90
25512;DHT22;13414;44.534;18.700;2022-08-19T05:52:18;24.00;1.00
25512;DHT22;13414;44.534;18.700;2022-08-19T05:54:46;24.00;99.90
25512;DHT22;13414;44.534;18.700;2022-08-19T05:57:17;24.00;1.00
25512;DHT22;13414;44.534;18.700;2022-08-19T05:59:44;23.90;1.00
25512;DHT22;13414;44.534;18.700;2022-08-19T06:02:17;23.70;1.00
25512;DHT22;13414;44.534;18.700;2022-08-19T06:04:44;23.70;99.90
25512;DHT22;13414;44.534;18.700;2022-08-19T06:07:13;23.80;99.90
25512;DHT22;13414;44.534;18.700;2022-08-19T06:09:41;24.00;99.90
25512;DHT22;13414;44.534;18.700;2022-08-19T06:12:08;24.30;1.00
25512;DHT22;13414;44.534;18.700;2022-08-19T06:14:37;24.70;1.00
25512;DHT22;13414;44.534;18.700;2022-08-19T06:17:04;25.10;1.00
25512;DHT22;13414;44.534;18.700;2022-08-19T06:19:31;25.40;99.90
25512;DHT22;13414;44.534;18.700;2022-08-19T06:21:59;25.20;23.60
25512;DHT22;13414;44.534;18.700;2022-08-19T06:24:29;25.40;99.90
25512;DHT22;13414;44.534;18.700;2022-08-19T06:26:58;25.60;1.00
25512;DHT22;13414;44.534;18.700;2022-08-19T06:29:27;25.60;1.00
25512;DHT22;13414;44.534;18.700;2022-08-19T06:31:57;25.90;1.00
25512;DHT22;13414;44.534;18.700;2022-08-19T06:34:27;26.30;99.90
25512;DHT22;13414;44.534;18.700;2022-08-19T06:36:56;26.50;99.90
25512;DHT22;13414;44.534;18.700;2022-08-19T06:39:30;26.80;1.00
25512;DHT22;13414;44.534;18.700;2022-08-19T06:42:00;27.10;25.60
25512;DHT22;13414;44.534;18.700;2022-08-19T06:44:30;27.40;99.90
25512;DHT22;13414;44.534;18.700;2022-08-19T06:47:01;27.60;1.00
25512;DHT22;13414;44.534;18.700;2022-08-19T06:49:29;27.70;99.90
25512;DHT22;13414;44.534;18.700;2022-08-19T06:51:57;27.90;99.90
25512;DHT22;13414;44.534;18.700;2022-08-19T06:54:25;28.30;1.00
25512;DHT22;13414;44.534;18.700;2022-08-19T06:56:54;28.50;1.00
25512;DHT22;13414;44.534;18.700;2022-08-19T06:59:23;28.60;99.90
25512;DHT22;13414;44.534;18.700;2022-08-19T07:01:55;28.70;99.90
25512;DHT22;13414;44.534;18.700;2022-08-19T07:04:25;28.70;99.90
25512;DHT22;13414;44.534;18.700;2022-08-19T07:06:58;29.00;99.90
25512;DHT22;13414;44.534;18.700;2022-08-19T07:09:26;29.20;99.90
25512;DHT22;13414;44.534;18.700;2022-08-19T07:11:55;29.50;99.90
25512;DHT22;13414;44.534;18.700;2022-08-19T07:14:25;29.50;99.90
25512;DHT22;13414;44.534;18.700;2022-08-19T07:16:54;29.60;99.90
25512;DHT22;13414;44.534;18.700;2022-08-19T07:19:23;29.70;99.90
25512;DHT22;13414;44.534;18.700;2022-08-19T07:21:52;30.00;99.90
25512;DHT22;13414;44.534;18.700;2022-08-19T07:24:20;30.20;99.90
25512;DHT22;13414;44.534;18.700;2022-08-19T07:26:50;30.40;99.90
25512;DHT22;13414;44.534;18.700;2022-08-19T07:29:19;30.60;99.90
25512;DHT22;13414;44.534;18.700;2022-08-19T07:31:49;30.70;99.90
25512;DHT22;13414;44.534;18.700;2022-08-19T07:34:17;30.80;99.90
25512;DHT22;13414;44.534;18.700;2022-08-19T07:36:44;30.90;99.90
25512;DHT22;13414;44.534;18.700;2022-08-19T07:39:14;31.10;99.90
25512;DHT22;13414;44.534;18.700;2022-08-19T07:41:43;31.20;99.90
25512;DHT22;13414;44.534;18.700;2022-08-19T07:44:10;31.30;99.90
25512;DHT22;13414;44.534;18.700;2022-08-19T07:46:42;31.40;99.90
25512;DHT22;13414;44.534;18.700;2022-08-19T07:49:12;31.50;99.90
25512;DHT22;13414;44.534;18.700;2022-08-19T07:51:44;31.70;99.90
25512;DHT22;13414;44.534;18.700;2022-08-19T07:54:11;31.80;99.00
25512;DHT22;13414;44.534;18.700;2022-08-19T07:56:39;31.90;98.30
25512;DHT22;13414;44.534;18.700;2022-08-19T07:59:06;32.00;96.80
25512;DHT22;13414;44.534;18.700;2022-08-19T08:01:35;32.30;95.30
25512;DHT22;13414;44.534;18.700;2022-08-19T08:04:04;32.30;94.40
25512;DHT22;13414;44.534;18.700;2022-08-19T08:06:49;32.40;94.10
25512;DHT22;13414;44.534;18.700;2022-08-19T08:09:36;32.40;92.80
25512;DHT22;13414;44.534;18.700;2022-08-19T08:12:06;32.50;92.40
25512;DHT22;13414;44.534;18.700;2022-08-19T08:14:36;32.70;92.30
25512;DHT22;13414;44.534;18.700;2022-08-19T08:17:04;32.70;92.40
25512;DHT22;13414;44.534;18.700;2022-08-19T08:19:33;32.80;92.30
25512;DHT22;13414;44.534;18.700;2022-08-19T08:22:01;33.00;92.10
25512;DHT22;13414;44.534;18.700;2022-08-19T08:24:31;33.10;91.90
25512;DHT22;13414;44.534;18.700;2022-08-19T08:27:00;33.20;91.80
25512;DHT22;13414;44.534;18.700;2022-08-19T08:29:29;33.20;91.50
25512;DHT22;13414;44.534;18.700;2022-08-19T08:31:57;33.40;91.30
25512;DHT22;13414;44.534;18.700;2022-08-19T08:34:24;33.50;90.80
25512;DHT22;13414;44.534;18.700;2022-08-19T08:36:53;33.50;90.00
25512;DHT22;13414;44.534;18.700;2022-08-19T08:39:21;33.50;90.00
25512;DHT22;13414;44.534;18.700;2022-08-19T08:41:53;33.30;90.00
25512;DHT22;13414;44.534;18.700;2022-08-19T08:44:27;33.30;90.20
25512;DHT22;13414;44.534;18.700;2022-08-19T08:46:59;33.30;90.50
25512;DHT22;13414;44.534;18.700;2022-08-19T08:49:32;32.80;91.10
25512;DHT22;13414;44.534;18.700;2022-08-19T08:52:05;32.70;91.50
25512;DHT22;13414;44.534;18.700;2022-08-19T08:54:37;32.60;91.40
25512;DHT22;13414;44.534;18.700;2022-08-19T08:57:10;32.50;91.50
25512;DHT22;13414;44.534;18.700;2022-08-19T08:59:41;32.40;91.40
25512;DHT22;13414;44.534;18.700;2022-08-19T09:02:10;32.50;91.60
25512;DHT22;13414;44.534;18.700;2022-08-19T09:04:37;32.70;91.30
25512;DHT22;13414;44.534;18.700;2022-08-19T09:07:24;32.80;90.70
25512;DHT22;13414;44.534;18.700;2022-08-19T09:09:56;32.90;91.00
25512;DHT22;13414;44.534;18.700;2022-08-19T09:12:38;33.10;88.60
25512;DHT22;13414;44.534;18.700;2022-08-19T09:15:12;33.20;85.90
25512;DHT22;13414;44.534;18.700;2022-08-19T09:17:39;33.40;85.80
25512;DHT22;13414;44.534;18.700;2022-08-19T09:20:14;33.30;85.80
25512;DHT22;13414;44.534;18.700;2022-08-19T09:22:44;33.50;85.10
25512;DHT22;13414;44.534;18.700;2022-08-19T09:25:15;33.50;82.70
25512;DHT22;13414;44.534;18.700;2022-08-19T09:27:44;33.80;80.60
25512;DHT22;13414;44.534;18.700;2022-08-19T09:30:18;34.00;77.40
25512;DHT22;13414;44.534;18.700;2022-08-19T09:32:47;34.10;77.00
25512;DHT22;13414;44.534;18.700;2022-08-19T09:35:15;34.10;76.50
25512;DHT22;13414;44.534;18.700;2022-08-19T09:37:45;34.00;76.50
25512;DHT22;13414;44.534;18.700;2022-08-19T09:40:13;34.10;76.70
25512;DHT22;13414;44.534;18.700;2022-08-19T09:42:40;34.50;76.50
25512;DHT22;13414;44.534;18.700;2022-08-19T09:45:10;34.80;76.00
25512;DHT22;13414;44.534;18.700;2022-08-19T09:47:37;35.30;75.30
25512;DHT22;13414;44.534;18.700;2022-08-19T09:50:06;35.70;74.60
25512;DHT22;13414;44.534;18.700;2022-08-19T09:52:33;35.80;74.40
25512;DHT22;13414;44.534;18.700;2022-08-19T09:55:04;36.00;74.40
25512;DHT22;13414;44.534;18.700;2022-08-19T09:57:32;35.90;74.50
25512;DHT22;13414;44.534;18.700;2022-08-19T10:00:00;35.70;74.80
25512;DHT22;13414;44.534;18.700;2022-08-19T10:02:35;35.60;75.80
25512;DHT22;13414;44.534;18.700;2022-08-19T10:05:03;35.30;78.10
25512;DHT22;13414;44.534;18.700;2022-08-19T10:07:48;35.10;79.80
25512;DHT22;13414;44.534;18.700;2022-08-19T10:10:17;34.90;82.30
25512;DHT22;13414;44.534;18.700;2022-08-19T10:12:45;34.70;85.40
25512;DHT22;13414;44.534;18.700;2022-08-19T10:15:13;34.50;87.00
25512;DHT22;13414;44.534;18.700;2022-08-19T10:17:41;34.10;86.90
25512;DHT22;13414;44.534;18.700;2022-08-19T10:20:09;33.90;84.70
25512;DHT22;13414;44.534;18.700;2022-08-19T10:22:36;33.90;81.80
25512;DHT22;13414;44.534;18.700;2022-08-19T10:25:06;33.90;79.70
25512;DHT22;13414;44.534;18.700;2022-08-19T10:27:34;33.90;79.80
25512;DHT22;13414;44.534;18.700;2022-08-19T10:30:04;34.00;79.30
25512;DHT22;13414;44.534;18.700;2022-08-19T10:32:32;34.30;79.20
25512;DHT22;13414;44.534;18.700;2022-08-19T10:34:59;34.30;82.30
25512;DHT22;13414;44.534;18.700;2022-08-19T10:37:27;34.50;82.50
25512;DHT22;13414;44.534;18.700;2022-08-19T10:39:56;34.50;83.10
25512;DHT22;13414;44.534;18.700;2022-08-19T10:42:23;34.80;83.50
25512;DHT22;13414;44.534;18.700;2022-08-19T10:44:52;34.80;84.30
25512;DHT22;13414;44.534;18.700;2022-08-19T10:47:20;34.40;84.60
25512;DHT22;13414;44.534;18.700;2022-08-19T10:49:49;34.40;85.80
25512;DHT22;13414;44.534;18.700;2022-08-19T10:52:33;34.30;86.30
25512;DHT22;13414;44.534;18.700;2022-08-19T10:55:01;34.40;85.40
25512;DHT22;13414;44.534;18.700;2022-08-19T10:57:46;34.50;85.20
25512;DHT22;13414;44.534;18.700;2022-08-19T11:00:15;34.50;82.70
25512;DHT22;13414;44.534;18.700;2022-08-19T11:02:43;34.40;81.00
25512;DHT22;13414;44.534;18.700;2022-08-19T11:05:10;34.20;81.80
25512;DHT22;13414;44.534;18.700;2022-08-19T11:07:38;34.20;81.10
25512;DHT22;13414;44.534;18.700;2022-08-19T11:10:06;34.50;79.80
25512;DHT22;13414;44.534;18.700;2022-08-19T11:12:37;34.60;78.50
25512;DHT22;13414;44.534;18.700;2022-08-19T11:15:06;34.50;77.80
25512;DHT22;13414;44.534;18.700;2022-08-19T11:17:38;34.30;78.10
25512;DHT22;13414;44.534;18.700;2022-08-19T11:20:09;34.30;79.00
25512;DHT22;13414;44.534;18.700;2022-08-19T11:22:38;34.00;80.40
25512;DHT22;13414;44.534;18.700;2022-08-19T11:25:06;33.90;81.20
25512;DHT22;13414;44.534;18.700;2022-08-19T11:27:38;34.10;81.40
25512;DHT22;13414;44.534;18.700;2022-08-19T11:30:09;34.20;81.80
25512;DHT22;13414;44.534;18.700;2022-08-19T11:32:38;33.90;82.50
25512;DHT22;13414;44.534;18.700;2022-08-19T11:35:06;33.80;82.50
25512;DHT22;13414;44.534;18.700;2022-08-19T11:37:34;33.50;82.30
25512;DHT22;13414;44.534;18.700;2022-08-19T11:40:05;33.60;81.70
25512;DHT22;13414;44.534;18.700;2022-08-19T11:42:33;33.70;80.50
25512;DHT22;13414;44.534;18.700;2022-08-19T11:45:18;33.90;79.40
25512;DHT22;13414;44.534;18.700;2022-08-19T11:47:46;34.10;79.70
25512;DHT22;13414;44.534;18.700;2022-08-19T11:50:14;34.30;81.00
25512;DHT22;13414;44.534;18.700;2022-08-19T11:52:42;34.20;82.80
25512;DHT22;13414;44.534;18.700;2022-08-19T11:55:10;34.10;82.70
25512;DHT22;13414;44.534;18.700;2022-08-19T11:57:37;33.90;82.70
25512;DHT22;13414;44.534;18.700;2022-08-19T12:00:07;33.80;82.30
25512;DHT22;13414;44.534;18.700;2022-08-19T12:02:36;33.70;81.60
25512;DHT22;13414;44.534;18.700;2022-08-19T12:05:05;33.60;81.00
25512;DHT22;13414;44.534;18.700;2022-08-19T12:07:33;33.50;80.80
25512;DHT22;13414;44.534;18.700;2022-08-19T12:10:01;33.60;80.50
25512;DHT22;13414;44.534;18.700;2022-08-19T12:12:29;33.70;79.30
25512;DHT22;13414;44.534;18.700;2022-08-19T12:14:56;33.90;78.70
25512;DHT22;13414;44.534;18.700;2022-08-19T12:17:25;34.10;77.60
25512;DHT22;13414;44.534;18.700;2022-08-19T12:19:52;34.20;78.00
25512;DHT22;13414;44.534;18.700;2022-08-19T12:22:21;34.20;78.00
25512;DHT22;13414;44.534;18.700;2022-08-19T12:24:48;34.30;77.60
25512;DHT22;13414;44.534;18.700;2022-08-19T12:27:18;34.40;77.80
25512;DHT22;13414;44.534;18.700;2022-08-19T12:29:45;34.40;77.70
25512;DHT22;13414;44.534;18.700;2022-08-19T12:32:12;34.60;77.60
25512;DHT22;13414;44.534;18.700;2022-08-19T12:34:40;34.70;77.40
25512;DHT22;13414;44.534;18.700;2022-08-19T12:37:08;34.80;77.70
25512;DHT22;13414;44.534;18.700;2022-08-19T12:39:40;34.70;77.50
25512;DHT22;13414;44.534;18.700;2022-08-19T12:42:09;34.60;77.80
25512;DHT22;13414;44.534;18.700;2022-08-19T12:44:38;34.40;78.50
25512;DHT22;13414;44.534;18.700;2022-08-19T12:47:07;34.10;79.00
25512;DHT22;13414;44.534;18.700;2022-08-19T12:49:35;33.90;79.30
25512;DHT22;13414;44.534;18.700;2022-08-19T12:52:05;33.70;79.00
25512;DHT22;13414;44.534;18.700;2022-08-19T12:54:33;33.50;79.30
25512;DHT22;13414;44.534;18.700;2022-08-19T12:57:05;33.50;79.20
25512;DHT22;13414;44.534;18.700;2022-08-19T12:59:33;33.50;78.40
25512;DHT22;13414;44.534;18.700;2022-08-19T13:02:02;33.50;78.10
25512;DHT22;13414;44.534;18.700;2022-08-19T13:04:31;33.30;78.00
25512;DHT22;13414;44.534;18.700;2022-08-19T13:07:00;33.20;78.20
25512;DHT22;13414;44.534;18.700;2022-08-19T13:09:28;33.10;78.50
25512;DHT22;13414;44.534;18.700;2022-08-19T13:11:55;32.80;79.00
25512;DHT22;13414;44.534;18.700;2022-08-19T13:14:24;32.60;79.40
25512;DHT22;13414;44.534;18.700;2022-08-19T13:16:52;32.30;80.30
25512;DHT22;13414;44.534;18.700;2022-08-19T13:19:19;32.10;83.20
25512;DHT22;13414;44.534;18.700;2022-08-19T13:21:49;31.80;85.50
25512;DHT22;13414;44.534;18.700;2022-08-19T13:24:17;31.60;87.00
25512;DHT22;13414;44.534;18.700;2022-08-19T13:26:44;31.40;91.70
25512;DHT22;13414;44.534;18.700;2022-08-19T13:29:12;31.10;94.80
25512;DHT22;13414;44.534;18.700;2022-08-19T13:31:58;30.80;95.50
25512;DHT22;13414;44.534;18.700;2022-08-19T13:34:43;30.40;94.30
25512;DHT22;13414;44.534;18.700;2022-08-19T13:37:12;30.30;95.10
25512;DHT22;13414;44.534;18.700;2022-08-19T13:39:39;30.30;97.90
25512;DHT22;13414;44.534;18.700;2022-08-19T13:42:07;30.40;99.90
25512;DHT22;13414;44.534;18.700;2022-08-19T13:44:36;30.40;99.90
25512;DHT22;13414;44.534;18.700;2022-08-19T13:47:05;29.70;99.90
25512;DHT22;13414;44.534;18.700;2022-08-19T13:49:34;29.40;99.90
25512;DHT22;13414;44.534;18.700;2022-08-19T13:52:03;29.30;99.90
25512;DHT22;13414;44.534;18.700;2022-08-19T13:54:31;28.90;99.90
25512;DHT22;13414;44.534;18.700;2022-08-19T13:56:58;28.50;99.90
25512;DHT22;13414;44.534;18.700;2022-08-19T13:59:26;28.50;99.90
25512;DHT22;13414;44.534;18.700;2022-08-19T14:01:57;28.40;99.90
25512;DHT22;13414;44.534;18.700;2022-08-19T14:04:27;28.60;99.90
25512;DHT22;13414;44.534;18.700;2022-08-19T14:06:54;28.60;99.90
25512;DHT22;13414;44.534;18.700;2022-08-19T14:09:22;28.40;99.90
25512;DHT22;13414;44.534;18.700;2022-08-19T14:11:49;28.20;99.90
25512;DHT22;13414;44.534;18.700;2022-08-19T14:14:17;28.20;99.90
25512;DHT22;13414;44.534;18.700;2022-08-19T14:16:44;28.20;99.90
25512;DHT22;13414;44.534;18.700;2022-08-19T14:19:11;28.20;99.90
25512;DHT22;13414;44.534;18.700;2022-08-19T14:21:40;28.20;99.90
25512;DHT22;13414;44.534;18.700;2022-08-19T14:24:08;27.70;99.90
25512;DHT22;13414;44.534;18.700;2022-08-19T14:26:35;27.30;99.90
25512;DHT22;13414;44.534;18.700;2022-08-19T14:29:03;27.20;99.90
25512;DHT22;13414;44.534;18.700;2022-08-19T14:31:30;27.30;99.90
25512;DHT22;13414;44.534;18.700;2022-08-19T14:33:57;27.40;99.90
25512;DHT22;13414;44.534;18.700;2022-08-19T14:36:25;27.40;99.90
25512;DHT22;13414;44.534;18.700;2022-08-19T14:38:54;27.50;99.90
25512;DHT22;13414;44.534;18.700;2022-08-19T14:41:22;27.50;99.90
25512;DHT22;13414;44.534;18.700;2022-08-19T14:43:51;27.50;99.90
25512;DHT22;13414;44.534;18.700;2022-08-19T14:46:21;27.40;99.90
25512;DHT22;13414;44.534;18.700;2022-08-19T14:48:49;27.20;99.90
25512;DHT22;13414;44.534;18.700;2022-08-19T14:51:17;27.10;99.90
25512;DHT22;13414;44.534;18.700;2022-08-19T14:53:45;27.00;99.90
25512;DHT22;13414;44.534;18.700;2022-08-19T14:56:20;27.00;99.90
25512;DHT22;13414;44.534;18.700;2022-08-19T14:58:48;26.90;99.90
25512;DHT22;13414;44.534;18.700;2022-08-19T15:01:17;26.80;99.90
25512;DHT22;13414;44.534;18.700;2022-08-19T15:03:46;26.80;99.90
25512;DHT22;13414;44.534;18.700;2022-08-19T15:06:14;26.60;99.90
25512;DHT22;13414;44.534;18.700;2022-08-19T15:08:42;26.50;99.90
25512;DHT22;13414;44.534;18.700;2022-08-19T15:11:12;26.50;99.90
25512;DHT22;13414;44.534;18.700;2022-08-19T15:13:43;26.60;99.90
25512;DHT22;13414;44.534;18.700;2022-08-19T15:16:12;26.80;99.90
25512;DHT22;13414;44.534;18.700;2022-08-19T15:18:41;27.00;99.90
25512;DHT22;13414;44.534;18.700;2022-08-19T15:21:10;27.10;99.90
25512;DHT22;13414;44.534;18.700;2022-08-19T15:23:39;27.30;99.90
25512;DHT22;13414;44.534;18.700;2022-08-19T15:26:07;27.40;99.90
25512;DHT22;13414;44.534;18.700;2022-08-19T15:28:36;27.50;99.90
25512;DHT22;13414;44.534;18.700;2022-08-19T15:31:05;27.80;99.90